Accueil
METAR-TAF:

METAR-TAF

Aéroports :

Marianna Municipal Airport

Marianna, Floride, États-Unis

latitude: 30-50-12N, longitude: 085-11-01W, altitude: 34 m

Observation

Le bulletin a été fait il y a 45 minutes, à 07:53 UTC
Vent 4 kt de sud/sud-ouest
Température 23°C
Humidité 94%
Pression 1016 hPa
Visibilité: 16.1 km
Nuages fragmentés à une hauteur de 11000 ft

METAR: KMAI 290753Z AUTO 20004KT 10SM BKN110 23/22 A3001 RMK AO2 SLP158 T02330222

Heure: 03:38 (08:38 UTC)


TAF: absent

Observations et prévisions météorologiques de plus de 4000 aéroports (messages METAR et TAF).

Les stations disponibles sont représentées par des disques jaunes et rouges sur la carte.

Passer la souris dessus pour voir le nom de la station.

Cliquer dessus pour voir les observations et prévisions météorologiques.

Pour changer de carte: cliquez sur les boutons verts avec une croix noire pour zoomer, sur le bouton vert avec un tiret pour effectuer un zoom arrière, ou sur les flèches vertes pour les cartes adjacentes.


METAR-TAF: